createdAt,value
2018-05-07T00:02:13.268Z,13.10
2018-05-07T00:04:41.811Z,13.10
2018-05-07T00:07:10.335Z,13.10
2018-05-07T00:09:38.902Z,13.10
2018-05-07T00:12:07.551Z,13.10
2018-05-07T00:14:36.096Z,13.00
2018-05-07T00:17:04.627Z,12.90
2018-05-07T00:19:33.268Z,12.90
2018-05-07T00:22:01.809Z,12.80
2018-05-07T00:24:30.352Z,12.80
2018-05-07T00:26:58.856Z,12.80
2018-05-07T00:29:27.379Z,12.70
2018-05-07T00:31:55.901Z,12.70
2018-05-07T00:34:24.412Z,12.70
2018-05-07T00:36:52.944Z,12.60
2018-05-07T00:39:21.539Z,12.70
2018-05-07T00:41:50.095Z,12.70
2018-05-07T00:44:18.630Z,12.70
2018-05-07T00:46:47.156Z,12.70
2018-05-07T00:49:15.695Z,12.70
2018-05-07T00:51:44.232Z,12.70
2018-05-07T00:54:12.736Z,12.70
2018-05-07T00:56:42.061Z,12.60
2018-05-07T00:59:10.592Z,12.60
2018-05-07T01:01:39.119Z,12.60
2018-05-07T01:04:07.674Z,12.50
2018-05-07T01:06:36.228Z,12.50
2018-05-07T01:09:05.553Z,12.50
2018-05-07T01:11:34.088Z,12.50
2018-05-07T01:14:02.605Z,12.40
2018-05-07T01:16:31.238Z,12.40
2018-05-07T01:18:59.765Z,12.40
2018-05-07T01:21:28.265Z,12.30
2018-05-07T01:23:56.785Z,12.30
2018-05-07T01:26:25.337Z,12.30
2018-05-07T01:28:53.852Z,12.20
2018-05-07T01:31:22.336Z,12.20
2018-05-07T01:33:50.828Z,12.20
2018-05-07T01:36:19.372Z,12.20
2018-05-07T01:38:47.850Z,12.10
2018-05-07T01:41:16.351Z,12.10
2018-05-07T01:43:44.882Z,12.10
2018-05-07T01:46:13.380Z,12.10
2018-05-07T01:48:41.889Z,12.10
2018-05-07T01:51:10.422Z,12.10
2018-05-07T01:53:38.913Z,12.10
2018-05-07T01:56:07.433Z,12.00
2018-05-07T01:58:36.009Z,11.90
2018-05-07T02:01:04.569Z,11.90
2018-05-07T02:03:33.091Z,12.00
2018-05-07T02:06:01.611Z,12.00
2018-05-07T02:08:30.116Z,12.00
2018-05-07T02:10:58.605Z,11.90
2018-05-07T02:13:27.128Z,11.90
2018-05-07T02:15:55.645Z,11.80
2018-05-07T02:18:24.139Z,11.80
2018-05-07T02:20:52.651Z,11.80
2018-05-07T02:23:21.921Z,11.80
2018-05-07T02:25:50.425Z,11.80
2018-05-07T02:28:18.973Z,11.80
2018-05-07T02:30:48.243Z,11.80
2018-05-07T02:33:16.747Z,11.80
2018-05-07T02:35:45.313Z,11.80
2018-05-07T02:38:13.809Z,11.70
2018-05-07T02:40:42.313Z,11.70
2018-05-07T02:43:10.820Z,11.60
2018-05-07T02:45:39.321Z,11.70
2018-05-07T02:48:07.846Z,11.60
2018-05-07T02:50:36.378Z,11.60
2018-05-07T02:53:04.891Z,11.60
2018-05-07T02:55:33.485Z,11.50
2018-05-07T02:58:01.977Z,11.60
2018-05-07T03:00:30.483Z,11.60
2018-05-07T03:02:59.018Z,11.70
2018-05-07T03:05:27.655Z,11.70
2018-05-07T03:07:56.152Z,11.70
2018-05-07T03:10:24.647Z,11.80
2018-05-07T03:12:53.163Z,11.90
2018-05-07T03:15:21.710Z,11.90
2018-05-07T03:17:50.260Z,12.10
2018-05-07T03:20:18.756Z,12.10
2018-05-07T03:22:47.247Z,12.10
2018-05-07T03:25:15.747Z,12.10
2018-05-07T03:27:44.246Z,12.10
2018-05-07T03:30:12.746Z,12.10
2018-05-07T03:32:41.267Z,12.00
2018-05-07T03:35:09.800Z,12.00
2018-05-07T03:37:39.033Z,12.10
2018-05-07T03:40:08.301Z,12.10
2018-05-07T03:42:36.816Z,12.10
2018-05-07T03:45:06.126Z,12.20
2018-05-07T03:47:34.624Z,12.20
2018-05-07T03:50:03.179Z,12.30
2018-05-07T03:52:31.668Z,12.30
2018-05-07T03:55:00.192Z,12.40
2018-05-07T03:57:28.671Z,12.40
2018-05-07T03:59:57.163Z,12.50
2018-05-07T04:02:25.687Z,12.50
2018-05-07T04:04:54.230Z,12.50
2018-05-07T04:07:23.726Z,12.60
2018-05-07T04:09:52.254Z,12.70
2018-05-07T04:12:20.854Z,12.70
2018-05-07T04:14:49.389Z,12.90
2018-05-07T04:17:40.434Z,13.20
2018-05-07T04:20:20.701Z,13.70
2018-05-07T04:23:01.081Z,14.60
2018-05-07T04:25:29.645Z,15.70
2018-05-07T04:27:58.156Z,16.60
2018-05-07T04:30:26.653Z,17.60
2018-05-07T04:32:55.211Z,18.30
2018-05-07T04:35:23.745Z,19.20
2018-05-07T04:37:52.248Z,19.60
2018-05-07T04:40:20.747Z,20.10
2018-05-07T04:42:49.234Z,20.10
2018-05-07T04:45:17.742Z,20.50
2018-05-07T04:47:46.321Z,20.80
2018-05-07T04:50:14.847Z,21.00
2018-05-07T04:52:43.372Z,21.20
2018-05-07T04:55:11.918Z,21.40
2018-05-07T04:57:40.518Z,21.30
2018-05-07T05:00:09.245Z,21.50
2018-05-07T05:02:37.778Z,21.80
2018-05-07T05:05:06.305Z,22.00
2018-05-07T05:07:35.571Z,22.20
2018-05-07T05:10:04.111Z,22.10
2018-05-07T05:12:32.622Z,22.60
2018-05-07T05:15:01.129Z,22.60
2018-05-07T05:17:29.634Z,22.40
2018-05-07T05:19:58.156Z,22.60
2018-05-07T05:22:26.709Z,22.70
2018-05-07T05:24:55.282Z,23.10
2018-05-07T05:27:23.864Z,23.40
2018-05-07T05:29:52.742Z,23.80
2018-05-07T05:32:21.999Z,23.90
2018-05-07T05:34:50.569Z,24.00
2018-05-07T05:37:19.161Z,23.90
2018-05-07T05:39:47.853Z,23.70
2018-05-07T05:42:16.397Z,23.20
2018-05-07T05:44:44.915Z,22.90
2018-05-07T05:47:13.562Z,22.40
2018-05-07T05:49:42.163Z,22.10
2018-05-07T05:52:10.677Z,22.10
2018-05-07T05:54:39.209Z,21.60
2018-05-07T05:57:07.708Z,21.20
2018-05-07T05:59:36.228Z,20.80
2018-05-07T06:02:04.771Z,20.80
2018-05-07T06:04:33.264Z,20.70
2018-05-07T06:07:01.878Z,20.60
2018-05-07T06:09:30.398Z,20.60
2018-05-07T06:11:58.924Z,20.40
2018-05-07T06:14:27.536Z,20.30
2018-05-07T06:16:56.068Z,20.30
2018-05-07T06:19:24.581Z,20.40
2018-05-07T06:21:53.066Z,20.40
2018-05-07T06:24:22.528Z,20.40
2018-05-07T06:26:51.054Z,20.10
2018-05-07T06:29:19.580Z,19.80
2018-05-07T06:31:48.142Z,19.50
2018-05-07T06:34:16.718Z,19.40
2018-05-07T06:36:45.997Z,19.60
2018-05-07T06:39:14.517Z,19.50
2018-05-07T06:41:43.106Z,19.70
2018-05-07T06:44:11.665Z,19.80
2018-05-07T06:46:40.187Z,19.90
2018-05-07T06:49:08.731Z,20.00
2018-05-07T06:51:37.242Z,20.10
2018-05-07T06:54:05.717Z,19.90
2018-05-07T06:56:34.258Z,19.80
2018-05-07T06:59:02.762Z,19.80
2018-05-07T07:01:31.310Z,19.90
2018-05-07T07:03:59.804Z,19.80
2018-05-07T07:06:28.372Z,19.80
2018-05-07T07:08:56.864Z,20.00
2018-05-07T07:11:25.423Z,20.10
2018-05-07T07:13:54.001Z,20.20
2018-05-07T07:16:22.571Z,20.30
2018-05-07T07:18:51.061Z,20.20
2018-05-07T07:21:19.586Z,20.30
2018-05-07T07:23:48.132Z,20.30
2018-05-07T07:26:16.657Z,20.60
2018-05-07T07:28:45.138Z,20.50
2018-05-07T07:31:13.650Z,20.50
2018-05-07T07:33:42.232Z,20.40
2018-05-07T07:36:10.852Z,20.30
2018-05-07T07:38:39.415Z,20.40
2018-05-07T07:41:08.074Z,20.40
2018-05-07T07:43:36.779Z,20.40
2018-05-07T07:46:05.253Z,20.60
2018-05-07T07:48:33.858Z,20.70
2018-05-07T07:51:02.364Z,20.80
2018-05-07T07:53:30.959Z,20.90
2018-05-07T07:55:59.449Z,21.00
2018-05-07T07:58:27.964Z,21.10
2018-05-07T08:00:56.514Z,21.00
2018-05-07T08:03:25.092Z,21.10
2018-05-07T08:05:53.565Z,21.10
2018-05-07T08:08:22.090Z,21.30
2018-05-07T08:10:50.612Z,21.40
2018-05-07T08:13:19.229Z,21.40
2018-05-07T08:15:47.728Z,21.40
2018-05-07T08:18:16.974Z,21.60
2018-05-07T08:20:45.460Z,21.60
2018-05-07T08:23:14.015Z,21.60
2018-05-07T08:25:42.641Z,21.60
2018-05-07T08:28:11.162Z,21.70
2018-05-07T08:30:40.443Z,21.70
2018-05-07T08:33:09.127Z,21.70
2018-05-07T08:35:37.626Z,21.60
2018-05-07T08:38:06.892Z,21.50
2018-05-07T08:40:35.403Z,21.40
2018-05-07T08:43:04.678Z,21.40
2018-05-07T08:45:33.213Z,21.30
2018-05-07T08:48:01.735Z,21.30
2018-05-07T08:50:30.249Z,21.10
2018-05-07T08:52:58.786Z,20.70
2018-05-07T08:55:27.445Z,20.50
2018-05-07T08:57:56.058Z,20.50
2018-05-07T09:00:24.598Z,20.50
2018-05-07T09:02:53.214Z,20.40
2018-05-07T09:05:21.714Z,20.30
2018-05-07T09:07:50.213Z,20.20
2018-05-07T09:10:18.774Z,20.30
2018-05-07T09:12:47.287Z,20.30
2018-05-07T09:15:15.788Z,20.30
2018-05-07T09:17:45.082Z,20.20
2018-05-07T09:20:13.654Z,20.20
2018-05-07T09:22:42.142Z,20.30
2018-05-07T09:25:10.749Z,20.40
2018-05-07T09:27:39.244Z,20.60
2018-05-07T09:30:07.758Z,20.80
2018-05-07T09:32:36.335Z,20.90
2018-05-07T09:35:05.692Z,21.10
2018-05-07T09:37:34.306Z,21.10
2018-05-07T09:40:02.913Z,21.10
2018-05-07T09:42:31.471Z,21.20
2018-05-07T09:45:00.498Z,21.40
2018-05-07T09:47:29.061Z,21.30
2018-05-07T09:49:57.542Z,21.30
2018-05-07T09:52:26.074Z,21.30
2018-05-07T09:54:54.563Z,21.50
2018-05-07T09:57:23.077Z,21.60
2018-05-07T09:59:51.674Z,21.60
2018-05-07T10:02:21.049Z,21.70
2018-05-07T10:04:49.663Z,21.70
2018-05-07T10:07:18.168Z,21.90
2018-05-07T10:09:46.721Z,21.90
2018-05-07T10:12:15.332Z,21.90
2018-05-07T10:14:43.946Z,22.00
2018-05-07T10:17:12.444Z,22.00
2018-05-07T10:19:41.010Z,22.20
2018-05-07T10:22:09.500Z,22.10
2018-05-07T10:24:38.085Z,22.20
2018-05-07T10:27:06.631Z,22.30
2018-05-07T10:29:35.150Z,22.30
2018-05-07T10:32:03.759Z,22.40
2018-05-07T10:34:32.258Z,22.50
2018-05-07T10:37:02.747Z,22.70
2018-05-07T10:39:31.261Z,22.70
2018-05-07T10:41:59.760Z,22.80
2018-05-07T10:44:28.295Z,22.70
2018-05-07T10:46:56.812Z,22.60
2018-05-07T10:49:25.433Z,22.50
2018-05-07T10:51:54.695Z,22.80
2018-05-07T10:54:23.324Z,22.80
2018-05-07T10:56:51.812Z,23.00
2018-05-07T10:59:20.319Z,23.10
2018-05-07T11:01:48.933Z,23.10
2018-05-07T11:04:17.563Z,23.20
2018-05-07T11:06:46.151Z,23.20
2018-05-07T11:09:14.651Z,23.20
2018-05-07T11:11:43.248Z,23.10
2018-05-07T11:14:11.748Z,23.20
2018-05-07T11:16:40.266Z,23.00
2018-05-07T11:19:08.863Z,23.10
2018-05-07T11:21:37.547Z,23.10
2018-05-07T11:24:06.144Z,23.30
2018-05-07T11:26:34.690Z,23.40
2018-05-07T11:29:03.249Z,23.40
2018-05-07T11:31:32.736Z,23.30
2018-05-07T11:34:01.230Z,23.30
2018-05-07T11:36:29.749Z,23.40
2018-05-07T11:38:58.255Z,23.40
2018-05-07T11:41:26.775Z,23.30
2018-05-07T11:43:55.397Z,23.40
2018-05-07T11:46:23.950Z,23.30
2018-05-07T11:48:52.450Z,23.40
2018-05-07T11:51:20.981Z,23.40
2018-05-07T11:53:49.606Z,23.60
2018-05-07T11:56:18.872Z,23.80
2018-05-07T11:58:48.270Z,23.80
2018-05-07T12:01:16.890Z,23.80
2018-05-07T12:03:45.448Z,23.60
2018-05-07T12:06:14.067Z,23.60
2018-05-07T12:08:42.690Z,23.60
2018-05-07T12:11:11.185Z,23.70
2018-05-07T12:13:39.788Z,23.60
2018-05-07T12:16:08.386Z,23.60
2018-05-07T12:18:36.963Z,23.70
2018-05-07T12:21:05.481Z,23.70
2018-05-07T12:23:33.981Z,23.50
2018-05-07T12:26:02.502Z,23.60
2018-05-07T12:28:32.005Z,23.50
2018-05-07T12:31:00.560Z,23.60
2018-05-07T12:33:30.744Z,23.50
2018-05-07T12:35:59.312Z,23.60
2018-05-07T12:38:27.915Z,23.70
2018-05-07T12:40:56.438Z,23.80
2018-05-07T12:43:25.132Z,23.80
2018-05-07T12:45:53.654Z,23.80
2018-05-07T12:48:23.012Z,23.90
2018-05-07T12:50:51.506Z,24.00
2018-05-07T12:53:20.128Z,23.90
2018-05-07T12:55:49.400Z,23.80
2018-05-07T12:58:17.883Z,23.80
2018-05-07T13:00:46.390Z,23.80
2018-05-07T13:03:14.906Z,23.70
2018-05-07T13:05:43.551Z,23.70
2018-05-07T13:08:12.161Z,23.80
2018-05-07T13:10:40.932Z,23.80
2018-05-07T13:13:10.224Z,23.60
2018-05-07T13:15:38.855Z,23.60
2018-05-07T13:18:07.415Z,23.70
2018-05-07T13:20:35.879Z,23.70
2018-05-07T13:23:04.500Z,23.80
2018-05-07T13:25:33.087Z,23.70
2018-05-07T13:28:01.597Z,23.70
2018-05-07T13:30:30.150Z,23.50
2018-05-07T13:32:58.686Z,23.60
2018-05-07T13:35:28.055Z,23.50
2018-05-07T13:37:56.589Z,23.50
2018-05-07T13:40:25.183Z,23.40
2018-05-07T13:42:53.698Z,23.30
2018-05-07T13:45:22.197Z,23.40
2018-05-07T13:47:50.747Z,23.50
2018-05-07T13:50:19.248Z,23.50
2018-05-07T13:52:47.941Z,23.30
2018-05-07T13:55:16.449Z,23.30
2018-05-07T13:57:45.001Z,23.30
2018-05-07T14:00:13.535Z,23.20
2018-05-07T14:02:42.077Z,23.20
2018-05-07T14:05:11.424Z,23.50
2018-05-07T14:07:40.159Z,23.50
2018-05-07T14:10:08.630Z,23.70
2018-05-07T14:12:37.242Z,23.80
2018-05-07T14:15:06.549Z,23.70
2018-05-07T14:17:35.067Z,23.70
2018-05-07T14:20:03.752Z,23.90
2018-05-07T14:22:32.261Z,24.10
2018-05-07T14:25:00.803Z,24.30
2018-05-07T14:27:29.450Z,24.50
2018-05-07T14:29:57.970Z,24.60
2018-05-07T14:32:26.458Z,24.50
2018-05-07T14:34:54.946Z,24.50
2018-05-07T14:37:23.447Z,24.50
2018-05-07T14:39:52.069Z,24.40
2018-05-07T14:42:20.576Z,24.40
2018-05-07T14:44:49.243Z,24.30
2018-05-07T14:47:17.765Z,24.20
2018-05-07T14:49:46.313Z,24.20
2018-05-07T14:52:14.847Z,24.10
2018-05-07T14:54:43.345Z,24.00
2018-05-07T14:57:11.865Z,24.00
2018-05-07T14:59:40.342Z,24.00
2018-05-07T15:02:08.850Z,24.00
2018-05-07T15:04:37.354Z,23.90
2018-05-07T15:07:06.134Z,23.80
2018-05-07T15:09:34.634Z,23.70
2018-05-07T15:12:03.202Z,23.70
2018-05-07T15:14:31.748Z,23.80
2018-05-07T15:17:00.385Z,23.90
2018-05-07T15:19:29.746Z,23.80
2018-05-07T15:21:58.239Z,23.80
2018-05-07T15:24:26.854Z,23.80
2018-05-07T15:26:55.523Z,23.70
2018-05-07T15:29:24.185Z,23.70
2018-05-07T15:31:52.712Z,23.60
2018-05-07T15:34:21.291Z,23.40
2018-05-07T15:36:49.799Z,23.30
2018-05-07T15:39:18.428Z,23.30
2018-05-07T15:41:46.916Z,23.00
2018-05-07T15:44:15.437Z,23.00
2018-05-07T15:46:43.938Z,22.90
2018-05-07T15:49:12.607Z,22.90
2018-05-07T15:51:41.418Z,22.80
2018-05-07T15:54:10.751Z,23.10
2018-05-07T15:56:40.029Z,23.00
2018-05-07T15:59:08.646Z,23.20
2018-05-07T16:01:37.180Z,23.40
2018-05-07T16:04:05.930Z,23.50
2018-05-07T16:06:34.695Z,23.50
2018-05-07T16:09:03.843Z,23.50
2018-05-07T16:11:33.201Z,23.30
2018-05-07T16:14:01.702Z,23.30
2018-05-07T16:16:30.270Z,23.20
2018-05-07T16:18:58.805Z,23.00
2018-05-07T16:21:27.550Z,22.90
2018-05-07T16:23:56.452Z,22.80
2018-05-07T16:26:25.093Z,22.80
2018-05-07T16:28:53.648Z,22.90
2018-05-07T16:31:22.615Z,23.00
2018-05-07T16:33:51.651Z,23.00
2018-05-07T16:36:20.430Z,23.10
2018-05-07T16:38:49.265Z,23.10
2018-05-07T16:41:17.894Z,23.20
2018-05-07T16:43:47.640Z,23.20
2018-05-07T16:46:16.734Z,23.30
2018-05-07T16:48:45.731Z,23.30
2018-05-07T16:51:14.691Z,23.30
2018-05-07T16:53:43.415Z,23.30
2018-05-07T16:56:12.362Z,23.20
2018-05-07T16:58:41.068Z,23.20
2018-05-07T17:01:09.683Z,23.20
2018-05-07T17:03:38.288Z,23.30
2018-05-07T17:06:07.311Z,23.30
2018-05-07T17:08:36.023Z,23.30
2018-05-07T17:11:05.022Z,23.30
2018-05-07T17:13:33.548Z,23.20
2018-05-07T17:16:02.640Z,23.00
2018-05-07T17:18:31.471Z,23.00
2018-05-07T17:21:00.274Z,23.00
2018-05-07T17:23:28.889Z,23.00
2018-05-07T17:26:01.694Z,23.00
2018-05-07T17:28:31.707Z,22.90
2018-05-07T17:31:01.606Z,22.90
2018-05-07T17:40:14.354Z,23.00
2018-05-07T17:42:43.099Z,23.00
2018-05-07T17:45:24.701Z,23.10
2018-05-07T17:48:05.396Z,23.10
2018-05-07T17:50:34.255Z,23.20
2018-05-07T17:53:02.877Z,23.10
2018-05-07T17:55:35.673Z,23.00
2018-05-07T17:58:11.276Z,22.90
2018-05-07T18:00:45.253Z,22.60
2018-05-07T18:03:23.922Z,22.60
2018-05-07T18:05:55.350Z,22.40
2018-05-07T18:14:40.856Z,22.20
2018-05-07T18:17:16.756Z,21.90
2018-05-07T18:19:45.731Z,21.60
2018-05-07T18:22:15.329Z,21.50
2018-05-07T18:24:44.622Z,21.50
2018-05-07T18:27:13.455Z,21.40
2018-05-07T18:29:42.423Z,21.30
2018-05-07T18:32:12.302Z,21.30
2018-05-07T18:34:40.953Z,21.20
2018-05-07T18:37:10.224Z,21.00
2018-05-07T18:39:38.733Z,21.00
2018-05-07T18:42:07.973Z,20.70
2018-05-07T18:44:36.512Z,20.70
2018-05-07T18:47:05.837Z,20.50
2018-05-07T18:49:34.450Z,20.50
2018-05-07T18:52:04.179Z,20.30
2018-05-07T18:54:33.790Z,20.30
2018-05-07T18:57:02.410Z,20.30
2018-05-07T18:59:30.985Z,20.20
2018-05-07T19:02:00.491Z,20.20
2018-05-07T19:04:29.212Z,20.10
2018-05-07T19:06:57.806Z,20.00
2018-05-07T19:09:26.353Z,20.00
2018-05-07T19:11:54.968Z,20.00
2018-05-07T19:14:23.538Z,19.90
2018-05-07T19:16:52.076Z,19.90
2018-05-07T19:19:21.007Z,19.80
2018-05-07T19:21:50.629Z,19.60
2018-05-07T19:24:19.238Z,19.50
2018-05-07T19:26:47.767Z,19.40
2018-05-07T19:29:16.270Z,19.40
2018-05-07T19:31:44.836Z,19.30
2018-05-07T19:34:13.335Z,19.20
2018-05-07T19:36:41.949Z,19.10
2018-05-07T19:39:10.445Z,19.00
2018-05-07T19:41:38.987Z,19.00
2018-05-07T19:44:07.560Z,18.90
2018-05-07T19:46:36.042Z,18.90
2018-05-07T19:49:06.117Z,18.90
2018-05-07T19:51:34.748Z,18.80
2018-05-07T19:54:03.272Z,18.70
2018-05-07T19:56:31.789Z,18.70
2018-05-07T19:59:00.275Z,18.60
2018-05-07T20:01:28.756Z,18.50
2018-05-07T20:03:57.367Z,18.50
2018-05-07T20:06:26.740Z,18.30
2018-05-07T20:08:55.222Z,18.30
2018-05-07T20:11:24.489Z,18.30
2018-05-07T20:13:53.118Z,18.20
2018-05-07T20:16:21.664Z,18.20
2018-05-07T20:18:50.177Z,18.10
2018-05-07T20:21:18.780Z,18.10
2018-05-07T20:23:47.375Z,18.00
2018-05-07T20:26:16.004Z,17.90
2018-05-07T20:28:44.648Z,17.80
2018-05-07T20:31:13.195Z,17.70
2018-05-07T20:33:41.851Z,17.50
2018-05-07T20:36:10.401Z,17.40
2018-05-07T20:38:38.900Z,17.30
2018-05-07T20:41:07.410Z,17.20
2018-05-07T20:43:35.988Z,17.20
2018-05-07T20:46:04.507Z,17.20
2018-05-07T20:48:32.972Z,17.20
2018-05-07T20:51:01.476Z,17.20
2018-05-07T20:53:30.239Z,17.20
2018-05-07T20:55:58.756Z,17.10
2018-05-07T20:58:27.311Z,17.00
2018-05-07T21:00:55.937Z,17.00
2018-05-07T21:03:24.532Z,16.90
2018-05-07T21:05:53.039Z,16.90
2018-05-07T21:08:22.409Z,16.60
2018-05-07T21:10:50.920Z,16.60
2018-05-07T21:13:19.449Z,16.50
2018-05-07T21:15:47.957Z,16.40
2018-05-07T21:18:16.484Z,16.30
2018-05-07T21:20:45.016Z,16.20
2018-05-07T21:23:13.556Z,16.10
2018-05-07T21:25:42.093Z,16.10
2018-05-07T21:28:10.610Z,16.10
2018-05-07T21:30:39.985Z,16.10
2018-05-07T21:33:08.651Z,16.10
2018-05-07T21:35:37.220Z,16.00
2018-05-07T21:38:06.582Z,16.00
2018-05-07T21:40:35.160Z,16.00
2018-05-07T21:43:03.644Z,16.00
2018-05-07T21:45:32.188Z,16.00
2018-05-07T21:48:00.719Z,15.90
2018-05-07T21:50:29.228Z,15.80
2018-05-07T21:52:57.710Z,15.80
2018-05-07T21:55:26.278Z,15.60
2018-05-07T21:57:54.770Z,15.50
2018-05-07T22:00:23.373Z,15.40
2018-05-07T22:02:51.912Z,15.10
2018-05-07T22:05:20.427Z,15.10
2018-05-07T22:07:48.977Z,15.10
2018-05-07T22:10:17.550Z,15.20
2018-05-07T22:12:46.078Z,15.10
2018-05-07T22:15:14.586Z,15.20
2018-05-07T22:17:43.159Z,15.10
2018-05-07T22:20:11.811Z,15.10
2018-05-07T22:22:40.299Z,15.00
2018-05-07T22:25:08.783Z,14.80
2018-05-07T22:27:37.281Z,14.70
2018-05-07T22:30:05.803Z,14.60
2018-05-07T22:32:34.271Z,14.50
2018-05-07T22:35:02.857Z,14.40
2018-05-07T22:37:32.220Z,14.30
2018-05-07T22:40:00.693Z,14.30
2018-05-07T22:42:29.277Z,14.30
2018-05-07T22:44:58.723Z,14.30
2018-05-07T22:47:27.235Z,14.30
2018-05-07T22:49:55.862Z,14.30
2018-05-07T22:52:24.386Z,14.30
2018-05-07T22:54:52.970Z,14.20
2018-05-07T22:57:21.464Z,14.20
2018-05-07T22:59:49.975Z,14.20
2018-05-07T23:02:18.469Z,14.10
2018-05-07T23:04:47.047Z,14.10
2018-05-07T23:07:15.629Z,14.10
2018-05-07T23:09:44.194Z,14.00
2018-05-07T23:12:12.804Z,14.10
2018-05-07T23:14:41.315Z,14.10
2018-05-07T23:17:09.860Z,14.10
2018-05-07T23:19:38.448Z,14.00
2018-05-07T23:22:06.940Z,14.00
2018-05-07T23:24:35.509Z,14.00
2018-05-07T23:27:04.033Z,13.90
2018-05-07T23:29:32.552Z,13.40
2018-05-07T23:32:01.054Z,13.30
2018-05-07T23:34:29.611Z,13.30
2018-05-07T23:36:58.161Z,13.20
2018-05-07T23:39:26.691Z,13.10
2018-05-07T23:41:55.283Z,13.20
2018-05-07T23:44:23.783Z,13.20
2018-05-07T23:46:52.376Z,13.30
2018-05-07T23:49:20.891Z,13.40
2018-05-07T23:51:49.375Z,13.40
2018-05-07T23:54:17.887Z,13.40
2018-05-07T23:56:46.482Z,13.40
2018-05-07T23:59:14.994Z,13.30
